LOWL/LNZ METAR and TAF weather

Enter ICAO airport designator
Station Type Date Time Source
LOWL METAR 2019/04/18 10:20 UTC NOAA

LOWL 181020Z 08017KT 9999 FEW060 18/04 Q1025 NOSIG


Station Type Date Time Source
LOWL Decoded METAR 2019/04/18 10:20 UTC NOAA

Linz / Hoersching-Flughafen, Austria (LOWL) 48-14N 014-11E 313M
Apr 18, 2019 - 06:20 AM EDT / 2019.04.18 1020 UTC
Wind: from the E (080 degrees) at 20 MPH (17 KT):0
Visibility: greater than 7 mile(s):0
Sky conditions: mostly clear
Temperature: 64 F (18 C)
Dew Point: 39 F (4 C)
Relative Humidity: 39%
Pressure (altimeter): 30.27 in. Hg (1025 hPa)
ob: LOWL 181020Z 08017KT 9999 FEW060 18/04 Q1025 NOSIG
cycle: 10

Station Type Date Time Source
LOWL TAF 2019/04/18 06:24 UTC NOAA

TAF LOWL 180515Z 1806/1906 10010KT CAVOK TX19/1814Z TN07/1904Z
TEMPO 1807/1817 12018G28KT
TEMPO 1820/1906 09005KT

Example: see airport list